Terminal Aerodrome Forecast
Issued by NWS Pueblo, CO

Home | Current Version | Previous Version | Text Only | Print | Product List | Glossary On
Versions: 1 2 3 4 5 6 7 8 9 10 11 12 13 14 15 16
000
FTUS45 KPUB 192323
TAFPUB
TAF
KPUB 192323Z 2000/2024 10019KT P6SM VCSH BKN100
     FM200300 02010KT P6SM VCSH SCT070 BKN100
     FM200700 32006KT P6SM SCT050 BKN080
     FM201800 03012KT P6SM SCT030 BKN070=

USA.gov is the U.S. government's official web portal to all federal, state and local government web resources and services.